createdAt,value
2023-01-31T00:10:56.225Z,4.90
2023-01-31T00:16:01.972Z,3.67
2023-01-31T00:21:10.259Z,5.82
2023-01-31T00:26:18.696Z,3.70
2023-01-31T00:31:26.981Z,3.63
2023-01-31T00:36:34.812Z,4.32
2023-01-31T00:41:40.271Z,3.67
2023-01-31T00:46:46.139Z,3.65
2023-01-31T00:51:50.533Z,3.35
2023-01-31T01:02:01.088Z,3.37
2023-01-31T01:07:06.444Z,3.67
2023-01-31T01:12:11.086Z,4.93
2023-01-31T01:17:17.068Z,3.92
2023-01-31T01:22:21.728Z,3.10
2023-01-31T01:27:27.318Z,3.20
2023-01-31T01:32:33.937Z,2.90
2023-01-31T01:37:38.651Z,2.70
2023-01-31T01:42:43.291Z,3.28
2023-01-31T01:47:53.168Z,4.30
2023-01-31T01:53:01.814Z,3.08
2023-01-31T01:58:13.764Z,3.67
2023-01-31T02:03:21.141Z,4.25
2023-01-31T02:08:31.138Z,3.53
2023-01-31T02:13:36.588Z,2.92
2023-01-31T02:18:42.678Z,3.42
2023-01-31T02:24:23.739Z,2.92
2023-01-31T02:30:29.144Z,2.42
2023-01-31T02:35:49.974Z,3.17
2023-01-31T02:41:04.836Z,4.63
2023-01-31T02:46:16.042Z,2.40
2023-01-31T02:51:26.336Z,2.80
2023-01-31T02:56:35.870Z,2.20
2023-01-31T03:01:48.895Z,2.05
2023-01-31T03:07:02.203Z,2.40
2023-01-31T03:12:29.312Z,2.17
2023-01-31T03:17:51.113Z,2.60
2023-01-31T03:23:01.298Z,2.47
2023-01-31T03:28:12.310Z,2.40
2023-01-31T03:33:27.659Z,2.10
2023-01-31T03:38:38.895Z,2.20
2023-01-31T03:43:53.131Z,1.83
2023-01-31T03:49:00.760Z,2.00
2023-01-31T03:54:11.419Z,2.92
2023-01-31T03:59:27.282Z,2.58
2023-01-31T04:04:38.015Z,3.38
2023-01-31T04:09:43.876Z,2.97
2023-01-31T04:14:48.333Z,2.83
2023-01-31T04:19:52.731Z,3.08
2023-01-31T04:24:58.749Z,3.10
2023-01-31T04:30:03.469Z,2.33
2023-01-31T04:35:09.401Z,2.95
2023-01-31T04:40:15.771Z,2.28
2023-01-31T04:45:20.479Z,2.03
2023-01-31T04:55:30.435Z,2.47
2023-01-31T05:00:34.897Z,3.00
2023-01-31T05:05:39.353Z,2.17
2023-01-31T05:15:50.632Z,2.13
2023-01-31T05:20:55.459Z,2.03
2023-01-31T05:31:08.988Z,2.92
2023-01-31T05:36:14.933Z,2.58
2023-01-31T05:41:20.805Z,2.30
2023-01-31T05:46:25.256Z,2.47
2023-01-31T05:51:29.699Z,2.17
2023-01-31T05:56:35.661Z,3.55
2023-01-31T06:01:40.077Z,2.90
2023-01-31T06:06:45.824Z,2.53
2023-01-31T06:11:51.707Z,3.92
2023-01-31T06:16:56.145Z,3.50
2023-01-31T06:22:00.629Z,2.75
2023-01-31T06:27:06.871Z,2.75
2023-01-31T06:32:11.496Z,3.88
2023-01-31T06:37:16.370Z,3.25
2023-01-31T06:42:22.259Z,3.97
2023-01-31T06:47:27.189Z,3.85
2023-01-31T06:52:31.949Z,2.95
2023-01-31T06:57:38.099Z,3.53
2023-01-31T07:02:42.699Z,3.90
2023-01-31T07:07:47.344Z,4.00
2023-01-31T07:12:53.536Z,3.97
2023-01-31T07:18:00.239Z,3.90
2023-01-31T07:23:04.493Z,5.45
2023-01-31T07:28:11.251Z,5.15
2023-01-31T07:33:15.920Z,4.60
2023-01-31T07:38:21.030Z,7.43
2023-01-31T07:43:26.826Z,3.28
2023-01-31T07:48:31.039Z,3.80
2023-01-31T07:58:48.928Z,2.63
2023-01-31T08:03:53.711Z,3.10
2023-01-31T08:14:04.047Z,2.87
2023-01-31T08:19:08.487Z,3.63
2023-01-31T08:29:19.008Z,4.63
2023-01-31T08:34:23.502Z,4.30
2023-01-31T08:39:28.034Z,5.97
2023-01-31T08:44:33.860Z,4.55
2023-01-31T08:49:39.360Z,6.38
2023-01-31T08:54:44.103Z,4.43
2023-01-31T08:59:49.926Z,3.97
2023-01-31T09:04:54.350Z,4.43
2023-01-31T09:09:59.028Z,4.90
2023-01-31T09:15:05.368Z,4.05
2023-01-31T09:20:11.376Z,4.35
2023-01-31T09:25:16.131Z,5.72
2023-01-31T09:30:22.582Z,4.82
2023-01-31T09:35:27.172Z,4.60
2023-01-31T09:45:44.115Z,3.80
2023-01-31T09:50:54.249Z,5.55
2023-01-31T09:56:22.687Z,6.82
2023-01-31T10:01:33.295Z,3.20
2023-01-31T10:06:45.354Z,5.50
2023-01-31T10:11:53.529Z,6.05
2023-01-31T10:17:11.383Z,3.60
2023-01-31T10:22:22.017Z,3.47
2023-01-31T10:27:44.996Z,5.30
2023-01-31T10:32:57.195Z,4.18
2023-01-31T10:38:07.043Z,3.50
2023-01-31T10:43:19.715Z,3.42
2023-01-31T10:48:27.053Z,4.85
2023-01-31T10:53:49.797Z,6.53
2023-01-31T10:58:54.823Z,5.03
2023-01-31T11:09:06.281Z,6.68
2023-01-31T11:14:20.080Z,5.65
2023-01-31T11:19:37.239Z,4.13
2023-01-31T11:24:42.443Z,4.95
2023-01-31T11:29:51.089Z,6.10
2023-01-31T11:35:03.804Z,5.25
2023-01-31T11:40:23.485Z,5.53
2023-01-31T11:45:31.746Z,7.57
2023-01-31T11:50:41.158Z,4.43
2023-01-31T11:55:47.752Z,4.50
2023-01-31T12:00:58.944Z,3.35
2023-01-31T12:06:09.965Z,3.53
2023-01-31T12:11:30.435Z,3.40
2023-01-31T12:16:37.436Z,3.05
2023-01-31T12:21:59.088Z,2.40
2023-01-31T12:27:16.577Z,4.00
2023-01-31T12:32:36.509Z,2.67
2023-01-31T12:37:54.747Z,3.55
2023-01-31T12:43:02.407Z,3.28
2023-01-31T12:48:58.770Z,4.15
2023-01-31T12:54:37.388Z,3.08
2023-01-31T12:59:52.753Z,7.35
2023-01-31T13:05:03.224Z,4.03
2023-01-31T13:10:29.757Z,4.80
2023-01-31T13:15:45.852Z,4.53
2023-01-31T13:20:57.044Z,4.78
2023-01-31T13:26:10.756Z,4.38
2023-01-31T13:31:22.570Z,3.60
2023-01-31T13:36:33.528Z,5.32
2023-01-31T13:41:40.689Z,3.10
2023-01-31T13:46:52.721Z,2.85
2023-01-31T13:52:01.201Z,2.95
2023-01-31T13:57:08.408Z,3.35
2023-01-31T14:02:21.109Z,3.83
2023-01-31T14:07:26.178Z,4.60
2023-01-31T14:12:37.391Z,4.57
2023-01-31T14:18:01.786Z,5.65
2023-01-31T14:23:45.443Z,5.60
2023-01-31T14:28:52.129Z,3.45
2023-01-31T14:33:58.194Z,3.85
2023-01-31T14:39:52.002Z,3.58
2023-01-31T14:45:29.285Z,4.18
2023-01-31T14:50:59.540Z,3.38
2023-01-31T14:56:24.465Z,3.65
2023-01-31T15:01:38.215Z,4.07
2023-01-31T15:06:44.148Z,5.53
2023-01-31T15:11:50.006Z,5.88
2023-01-31T15:17:02.827Z,5.38
2023-01-31T15:22:11.202Z,7.72
2023-01-31T15:27:20.994Z,9.35
2023-01-31T15:32:35.483Z,10.05
2023-01-31T15:37:41.535Z,9.32
2023-01-31T15:42:45.967Z,9.40
2023-01-31T15:48:00.580Z,10.10
2023-01-31T15:53:06.509Z,9.95
2023-01-31T15:58:20.842Z,12.00
2023-01-31T16:03:29.681Z,10.43
2023-01-31T16:08:37.147Z,10.02
2023-01-31T16:13:44.036Z,9.02
2023-01-31T16:18:53.649Z,8.50
2023-01-31T16:24:04.100Z,8.70
2023-01-31T16:29:11.973Z,7.28
2023-01-31T16:34:27.173Z,7.72
2023-01-31T16:39:39.214Z,8.15
2023-01-31T16:44:46.980Z,6.90
2023-01-31T16:49:52.823Z,8.00
2023-01-31T16:55:03.022Z,8.52
2023-01-31T17:00:32.616Z,7.53
2023-01-31T17:05:46.465Z,8.13
2023-01-31T17:10:52.694Z,9.63
2023-01-31T17:15:56.979Z,10.52
2023-01-31T17:21:02.628Z,10.88
2023-01-31T17:26:07.236Z,12.82
2023-01-31T17:36:23.083Z,11.18
2023-01-31T17:41:27.781Z,9.90
2023-01-31T17:51:38.176Z,8.63
2023-01-31T17:56:43.025Z,6.85
2023-01-31T18:01:48.489Z,6.65
2023-01-31T18:11:58.433Z,7.97
2023-01-31T18:17:02.869Z,7.95
2023-01-31T18:22:09.296Z,8.20
2023-01-31T18:27:14.154Z,9.85
2023-01-31T18:32:20.188Z,9.65
2023-01-31T18:37:25.912Z,10.35
2023-01-31T18:42:30.153Z,10.02
2023-01-31T18:47:34.856Z,11.18
2023-01-31T18:57:48.149Z,10.95
2023-01-31T19:02:54.013Z,12.32
2023-01-31T19:07:59.777Z,12.25
2023-01-31T19:13:03.986Z,10.55
2023-01-31T19:18:08.549Z,11.48
2023-01-31T19:23:14.311Z,12.77
2023-01-31T19:28:22.832Z,10.80
2023-01-31T19:33:27.439Z,10.43
2023-01-31T19:38:33.419Z,10.50
2023-01-31T19:43:37.847Z,11.73
2023-01-31T19:48:42.332Z,9.48
2023-01-31T19:53:49.529Z,9.55
2023-01-31T19:58:54.277Z,9.70
2023-01-31T20:03:59.436Z,10.75
2023-01-31T20:09:07.438Z,8.90
2023-01-31T20:14:12.164Z,8.55
2023-01-31T20:19:18.524Z,10.35
2023-01-31T20:24:25.677Z,9.30
2023-01-31T20:29:30.132Z,9.73
2023-01-31T20:34:35.192Z,10.35
2023-01-31T20:39:41.070Z,10.18
2023-01-31T20:44:45.555Z,9.10
2023-01-31T20:49:53.524Z,9.55
2023-01-31T20:54:59.482Z,10.50
2023-01-31T21:00:05.321Z,10.40
2023-01-31T21:05:10.812Z,11.15
2023-01-31T21:10:16.723Z,11.75
2023-01-31T21:15:21.327Z,11.13
2023-01-31T21:25:32.182Z,8.97
2023-01-31T21:30:36.878Z,10.40
2023-01-31T21:35:41.314Z,10.35
2023-01-31T21:40:47.116Z,10.80
2023-01-31T21:45:51.771Z,9.15
2023-01-31T21:56:08.324Z,7.05
2023-01-31T22:01:15.758Z,7.88
2023-01-31T22:06:23.397Z,8.38
2023-01-31T22:11:33.014Z,7.97
2023-01-31T22:16:38.190Z,7.68
2023-01-31T22:21:44.058Z,7.35
2023-01-31T22:26:50.180Z,5.80
2023-01-31T22:31:56.207Z,6.13
2023-01-31T22:37:01.067Z,6.97
2023-01-31T22:42:06.936Z,6.45
2023-01-31T22:47:11.174Z,6.05
2023-01-31T22:52:15.643Z,6.60
2023-01-31T22:57:21.297Z,5.30
2023-01-31T23:02:25.789Z,5.53
2023-01-31T23:12:36.087Z,4.53
2023-01-31T23:17:41.741Z,5.50
2023-01-31T23:22:51.257Z,5.10
2023-01-31T23:27:59.198Z,5.10
2023-01-31T23:33:03.850Z,4.80
2023-01-31T23:38:08.292Z,4.85
2023-01-31T23:43:13.815Z,4.32
2023-01-31T23:48:18.376Z,4.82
2023-01-31T23:53:22.519Z,4.38
2023-01-31T23:58:28.786Z,4.75
